sensor_id;sensor_type;location;lat;lon;timestamp;P1;durP1;ratioP1;P2;durP2;ratioP2
51602;SDS011;37954;51.980;5.850;2023-04-24T00:02:57;3.60;;;3.25;;
51602;SDS011;37954;51.980;5.850;2023-04-24T00:07:10;4.20;;;3.13;;
51602;SDS011;37954;51.980;5.850;2023-04-24T00:11:22;6.63;;;3.63;;
51602;SDS011;37954;51.980;5.850;2023-04-24T00:15:34;4.00;;;3.60;;
51602;SDS011;37954;51.980;5.850;2023-04-24T00:19:46;3.80;;;3.13;;
51602;SDS011;37954;51.980;5.850;2023-04-24T00:23:58;6.82;;;2.70;;
51602;SDS011;37954;51.980;5.850;2023-04-24T00:28:11;2.60;;;2.40;;
51602;SDS011;37954;51.980;5.850;2023-04-24T00:32:22;1.70;;;1.60;;
51602;SDS011;37954;51.980;5.850;2023-04-24T00:36:34;1.70;;;1.60;;
51602;SDS011;37954;51.980;5.850;2023-04-24T00:40:46;1.77;;;1.63;;
51602;SDS011;37954;51.980;5.850;2023-04-24T00:44:59;1.50;;;1.40;;
51602;SDS011;37954;51.980;5.850;2023-04-24T00:49:12;5.80;;;1.87;;
51602;SDS011;37954;51.980;5.850;2023-04-24T00:53:25;2.03;;;1.83;;
51602;SDS011;37954;51.980;5.850;2023-04-24T00:57:37;2.05;;;1.85;;
51602;SDS011;37954;51.980;5.850;2023-04-24T01:01:49;2.40;;;2.20;;
51602;SDS011;37954;51.980;5.850;2023-04-24T01:06:02;2.77;;;2.57;;
51602;SDS011;37954;51.980;5.850;2023-04-24T01:10:16;3.75;;;3.10;;
51602;SDS011;37954;51.980;5.850;2023-04-24T01:14:29;5.97;;;4.63;;
51602;SDS011;37954;51.980;5.850;2023-04-24T01:18:41;9.73;;;5.90;;
51602;SDS011;37954;51.980;5.850;2023-04-24T01:22:55;10.07;;;7.37;;
51602;SDS011;37954;51.980;5.850;2023-04-24T01:27:08;10.53;;;7.60;;
51602;SDS011;37954;51.980;5.850;2023-04-24T01:31:21;8.07;;;5.80;;
51602;SDS011;37954;51.980;5.850;2023-04-24T01:35:33;7.47;;;5.50;;
51602;SDS011;37954;51.980;5.850;2023-04-24T01:39:45;6.07;;;5.20;;
51602;SDS011;37954;51.980;5.850;2023-04-24T01:43:57;5.47;;;4.20;;
51602;SDS011;37954;51.980;5.850;2023-04-24T01:48:10;4.10;;;3.30;;
51602;SDS011;37954;51.980;5.850;2023-04-24T01:52:23;4.43;;;3.40;;
51602;SDS011;37954;51.980;5.850;2023-04-24T01:56:35;4.33;;;3.70;;
51602;SDS011;37954;51.980;5.850;2023-04-24T02:00:51;9.03;;;4.03;;
51602;SDS011;37954;51.980;5.850;2023-04-24T02:05:05;7.70;;;5.17;;
51602;SDS011;37954;51.980;5.850;2023-04-24T02:09:20;7.50;;;5.17;;
51602;SDS011;37954;51.980;5.850;2023-04-24T02:13:31;14.50;;;11.40;;
51602;SDS011;37954;51.980;5.850;2023-04-24T02:17:45;12.33;;;8.20;;
51602;SDS011;37954;51.980;5.850;2023-04-24T02:21:57;9.07;;;6.95;;
51602;SDS011;37954;51.980;5.850;2023-04-24T02:26:08;11.73;;;7.82;;
51602;SDS011;37954;51.980;5.850;2023-04-24T02:30:20;13.13;;;8.75;;
51602;SDS011;37954;51.980;5.850;2023-04-24T02:34:32;15.17;;;11.33;;
51602;SDS011;37954;51.980;5.850;2023-04-24T02:38:44;15.07;;;10.93;;
51602;SDS011;37954;51.980;5.850;2023-04-24T02:42:57;14.35;;;10.93;;
51602;SDS011;37954;51.980;5.850;2023-04-24T02:47:08;13.23;;;11.05;;
51602;SDS011;37954;51.980;5.850;2023-04-24T02:51:20;13.80;;;10.75;;
51602;SDS011;37954;51.980;5.850;2023-04-24T02:55:32;13.68;;;10.48;;
51602;SDS011;37954;51.980;5.850;2023-04-24T02:59:44;17.27;;;11.82;;
51602;SDS011;37954;51.980;5.850;2023-04-24T03:03:56;12.80;;;9.70;;
51602;SDS011;37954;51.980;5.850;2023-04-24T03:08:08;12.00;;;9.27;;
51602;SDS011;37954;51.980;5.850;2023-04-24T03:12:20;12.63;;;9.40;;
51602;SDS011;37954;51.980;5.850;2023-04-24T03:16:31;13.82;;;10.18;;
51602;SDS011;37954;51.980;5.850;2023-04-24T03:20:47;14.98;;;10.45;;
51602;SDS011;37954;51.980;5.850;2023-04-24T03:24:59;15.17;;;10.40;;
51602;SDS011;37954;51.980;5.850;2023-04-24T03:29:11;13.15;;;9.40;;
51602;SDS011;37954;51.980;5.850;2023-04-24T03:33:23;12.47;;;10.27;;
51602;SDS011;37954;51.980;5.850;2023-04-24T03:37:42;13.77;;;10.70;;
51602;SDS011;37954;51.980;5.850;2023-04-24T03:42:15;16.87;;;12.60;;
51602;SDS011;37954;51.980;5.850;2023-04-24T03:46:34;17.60;;;13.10;;
51602;SDS011;37954;51.980;5.850;2023-04-24T03:50:47;15.37;;;12.23;;
51602;SDS011;37954;51.980;5.850;2023-04-24T03:54:59;20.03;;;14.07;;
51602;SDS011;37954;51.980;5.850;2023-04-24T03:59:12;23.13;;;15.43;;
51602;SDS011;37954;51.980;5.850;2023-04-24T04:03:28;21.15;;;15.10;;
51602;SDS011;37954;51.980;5.850;2023-04-24T04:07:40;23.33;;;15.97;;
51602;SDS011;37954;51.980;5.850;2023-04-24T04:11:52;24.27;;;16.33;;
51602;SDS011;37954;51.980;5.850;2023-04-24T04:16:04;19.70;;;15.50;;
51602;SDS011;37954;51.980;5.850;2023-04-24T04:20:19;22.53;;;16.07;;
51602;SDS011;37954;51.980;5.850;2023-04-24T04:24:31;24.13;;;14.43;;
51602;SDS011;37954;51.980;5.850;2023-04-24T04:28:43;20.00;;;14.67;;
51602;SDS011;37954;51.980;5.850;2023-04-24T04:32:56;21.33;;;15.03;;
51602;SDS011;37954;51.980;5.850;2023-04-24T04:37:08;20.80;;;14.73;;
51602;SDS011;37954;51.980;5.850;2023-04-24T04:41:31;22.17;;;14.67;;
51602;SDS011;37954;51.980;5.850;2023-04-24T04:45:44;22.17;;;13.67;;
51602;SDS011;37954;51.980;5.850;2023-04-24T04:50:14;17.67;;;13.80;;
51602;SDS011;37954;51.980;5.850;2023-04-24T04:54:28;18.80;;;14.00;;
51602;SDS011;37954;51.980;5.850;2023-04-24T04:58:41;18.30;;;12.80;;
51602;SDS011;37954;51.980;5.850;2023-04-24T05:02:56;14.43;;;11.97;;
51602;SDS011;37954;51.980;5.850;2023-04-24T05:07:28;17.37;;;13.97;;
51602;SDS011;37954;51.980;5.850;2023-04-24T05:11:40;16.43;;;13.10;;
51602;SDS011;37954;51.980;5.850;2023-04-24T05:20:51;16.77;;;12.40;;
51602;SDS011;37954;51.980;5.850;2023-04-24T05:25:05;16.60;;;12.83;;
51602;SDS011;37954;51.980;5.850;2023-04-24T05:29:21;16.17;;;11.30;;
51602;SDS011;37954;51.980;5.850;2023-04-24T05:33:35;14.07;;;11.50;;
51602;SDS011;37954;51.980;5.850;2023-04-24T05:37:47;12.40;;;9.57;;
51602;SDS011;37954;51.980;5.850;2023-04-24T05:42:01;11.70;;;8.90;;
51602;SDS011;37954;51.980;5.850;2023-04-24T05:46:13;10.33;;;8.00;;
51602;SDS011;37954;51.980;5.850;2023-04-24T05:50:24;9.60;;;7.30;;
51602;SDS011;37954;51.980;5.850;2023-04-24T05:54:37;8.70;;;6.93;;
51602;SDS011;37954;51.980;5.850;2023-04-24T05:58:50;9.77;;;7.47;;
51602;SDS011;37954;51.980;5.850;2023-04-24T06:03:02;8.77;;;7.07;;
51602;SDS011;37954;51.980;5.850;2023-04-24T06:07:16;9.77;;;6.73;;
51602;SDS011;37954;51.980;5.850;2023-04-24T06:11:31;8.27;;;7.07;;
51602;SDS011;37954;51.980;5.850;2023-04-24T06:15:44;8.47;;;6.03;;
51602;SDS011;37954;51.980;5.850;2023-04-24T06:20:09;7.33;;;5.50;;
51602;SDS011;37954;51.980;5.850;2023-04-24T06:24:26;10.13;;;6.07;;
51602;SDS011;37954;51.980;5.850;2023-04-24T06:28:39;6.87;;;5.40;;
51602;SDS011;37954;51.980;5.850;2023-04-24T06:32:51;7.60;;;6.03;;
51602;SDS011;37954;51.980;5.850;2023-04-24T06:37:07;7.40;;;5.60;;
51602;SDS011;37954;51.980;5.850;2023-04-24T06:41:19;6.50;;;5.10;;
51602;SDS011;37954;51.980;5.850;2023-04-24T06:45:31;4.60;;;4.15;;
51602;SDS011;37954;51.980;5.850;2023-04-24T06:49:42;4.22;;;3.75;;
51602;SDS011;37954;51.980;5.850;2023-04-24T06:53:54;4.13;;;3.50;;
51602;SDS011;37954;51.980;5.850;2023-04-24T06:58:09;3.77;;;3.10;;
51602;SDS011;37954;51.980;5.850;2023-04-24T07:02:22;3.60;;;2.90;;
51602;SDS011;37954;51.980;5.850;2023-04-24T07:06:37;4.47;;;2.63;;
51602;SDS011;37954;51.980;5.850;2023-04-24T07:10:49;2.95;;;2.65;;
51602;SDS011;37954;51.980;5.850;2023-04-24T07:15:02;2.77;;;2.40;;
51602;SDS011;37954;51.980;5.850;2023-04-24T07:19:14;2.95;;;2.15;;
51602;SDS011;37954;51.980;5.850;2023-04-24T07:23:27;1.92;;;1.73;;
51602;SDS011;37954;51.980;5.850;2023-04-24T07:37:38;2.22;;;1.52;;
51602;SDS011;37954;51.980;5.850;2023-04-24T07:43:04;2.90;;;1.90;;
51602;SDS011;37954;51.980;5.850;2023-04-24T07:47:25;3.75;;;2.65;;
51602;SDS011;37954;51.980;5.850;2023-04-24T07:51:48;3.80;;;3.03;;
51602;SDS011;37954;51.980;5.850;2023-04-24T07:56:01;4.90;;;3.40;;
51602;SDS011;37954;51.980;5.850;2023-04-24T08:00:13;6.47;;;4.60;;
51602;SDS011;37954;51.980;5.850;2023-04-24T08:04:25;4.87;;;4.23;;
51602;SDS011;37954;51.980;5.850;2023-04-24T08:08:37;7.80;;;5.03;;
51602;SDS011;37954;51.980;5.850;2023-04-24T08:12:49;8.70;;;5.00;;
51602;SDS011;37954;51.980;5.850;2023-04-24T08:17:01;8.73;;;5.43;;
51602;SDS011;37954;51.980;5.850;2023-04-24T08:21:13;11.20;;;5.93;;
51602;SDS011;37954;51.980;5.850;2023-04-24T08:25:28;7.00;;;5.47;;
51602;SDS011;37954;51.980;5.850;2023-04-24T08:29:40;9.07;;;5.50;;
51602;SDS011;37954;51.980;5.850;2023-04-24T08:33:52;6.53;;;5.00;;
51602;SDS011;37954;51.980;5.850;2023-04-24T08:38:03;12.10;;;6.17;;
51602;SDS011;37954;51.980;5.850;2023-04-24T08:42:16;8.50;;;5.10;;
51602;SDS011;37954;51.980;5.850;2023-04-24T08:46:29;7.10;;;4.77;;
51602;SDS011;37954;51.980;5.850;2023-04-24T08:50:42;8.97;;;5.63;;
51602;SDS011;37954;51.980;5.850;2023-04-24T08:55:02;6.73;;;4.80;;
51602;SDS011;37954;51.980;5.850;2023-04-24T08:59:15;6.03;;;4.77;;
51602;SDS011;37954;51.980;5.850;2023-04-24T09:03:27;5.77;;;3.90;;
51602;SDS011;37954;51.980;5.850;2023-04-24T09:07:40;6.87;;;2.90;;
51602;SDS011;37954;51.980;5.850;2023-04-24T09:11:55;5.27;;;2.73;;
51602;SDS011;37954;51.980;5.850;2023-04-24T09:16:08;6.53;;;3.00;;
51602;SDS011;37954;51.980;5.850;2023-04-24T09:20:20;6.23;;;2.67;;
51602;SDS011;37954;51.980;5.850;2023-04-24T09:24:32;6.73;;;2.90;;
51602;SDS011;37954;51.980;5.850;2023-04-24T09:28:44;5.47;;;2.87;;
51602;SDS011;37954;51.980;5.850;2023-04-24T09:33:10;5.90;;;2.72;;
51602;SDS011;37954;51.980;5.850;2023-04-24T09:37:30;7.53;;;2.30;;
51602;SDS011;37954;51.980;5.850;2023-04-24T09:41:48;5.82;;;2.20;;
51602;SDS011;37954;51.980;5.850;2023-04-24T09:46:06;5.95;;;2.90;;
51602;SDS011;37954;51.980;5.850;2023-04-24T09:50:18;11.98;;;2.83;;
51602;SDS011;37954;51.980;5.850;2023-04-24T09:54:32;4.50;;;2.22;;
51602;SDS011;37954;51.980;5.850;2023-04-24T09:58:44;6.23;;;2.00;;
51602;SDS011;37954;51.980;5.850;2023-04-24T10:02:58;5.40;;;2.17;;
51602;SDS011;37954;51.980;5.850;2023-04-24T10:07:11;5.65;;;2.20;;
51602;SDS011;37954;51.980;5.850;2023-04-24T10:11:29;8.50;;;2.08;;
51602;SDS011;37954;51.980;5.850;2023-04-24T10:15:42;5.68;;;2.22;;
51602;SDS011;37954;51.980;5.850;2023-04-24T10:19:54;6.13;;;2.50;;
51602;SDS011;37954;51.980;5.850;2023-04-24T10:24:06;3.65;;;2.08;;
51602;SDS011;37954;51.980;5.850;2023-04-24T10:28:18;8.07;;;2.42;;
51602;SDS011;37954;51.980;5.850;2023-04-24T10:32:30;4.63;;;2.03;;
51602;SDS011;37954;51.980;5.850;2023-04-24T10:36:50;8.05;;;2.08;;
51602;SDS011;37954;51.980;5.850;2023-04-24T10:41:08;5.15;;;2.28;;
51602;SDS011;37954;51.980;5.850;2023-04-24T10:45:22;3.03;;;1.58;;
51602;SDS011;37954;51.980;5.850;2023-04-24T10:49:34;6.18;;;1.98;;
51602;SDS011;37954;51.980;5.850;2023-04-24T10:53:47;2.45;;;1.70;;
51602;SDS011;37954;51.980;5.850;2023-04-24T10:58:02;2.42;;;1.42;;
51602;SDS011;37954;51.980;5.850;2023-04-24T11:02:15;5.43;;;1.70;;
51602;SDS011;37954;51.980;5.850;2023-04-24T11:06:29;4.68;;;1.50;;
51602;SDS011;37954;51.980;5.850;2023-04-24T11:10:56;3.25;;;1.20;;
51602;SDS011;37954;51.980;5.850;2023-04-24T11:15:12;4.10;;;1.75;;
51602;SDS011;37954;51.980;5.850;2023-04-24T11:19:25;4.20;;;1.30;;
51602;SDS011;37954;51.980;5.850;2023-04-24T11:23:37;6.10;;;1.40;;
51602;SDS011;37954;51.980;5.850;2023-04-24T11:27:49;1.70;;;1.35;;
51602;SDS011;37954;51.980;5.850;2023-04-24T11:32:13;3.35;;;1.35;;
51602;SDS011;37954;51.980;5.850;2023-04-24T11:36:35;1.70;;;0.80;;
51602;SDS011;37954;51.980;5.850;2023-04-24T11:40:47;1.50;;;0.85;;
51602;SDS011;37954;51.980;5.850;2023-04-24T11:45:07;1.95;;;0.85;;
51602;SDS011;37954;51.980;5.850;2023-04-24T11:49:20;2.83;;;1.02;;
51602;SDS011;37954;51.980;5.850;2023-04-24T11:53:32;0.75;;;0.75;;
51602;SDS011;37954;51.980;5.850;2023-04-24T11:57:44;4.53;;;0.77;;
51602;SDS011;37954;51.980;5.850;2023-04-24T12:01:58;3.17;;;1.10;;
51602;SDS011;37954;51.980;5.850;2023-04-24T12:06:10;2.47;;;0.65;;
51602;SDS011;37954;51.980;5.850;2023-04-24T12:10:24;2.72;;;1.00;;
51602;SDS011;37954;51.980;5.850;2023-04-24T12:14:47;0.68;;;0.63;;
51602;SDS011;37954;51.980;5.850;2023-04-24T12:19:01;0.88;;;0.88;;
51602;SDS011;37954;51.980;5.850;2023-04-24T12:23:13;2.15;;;0.70;;
51602;SDS011;37954;51.980;5.850;2023-04-24T12:27:25;2.38;;;0.93;;
51602;SDS011;37954;51.980;5.850;2023-04-24T12:31:37;1.00;;;0.60;;
51602;SDS011;37954;51.980;5.850;2023-04-24T12:35:51;3.70;;;0.95;;
51602;SDS011;37954;51.980;5.850;2023-04-24T12:40:07;1.10;;;0.77;;
51602;SDS011;37954;51.980;5.850;2023-04-24T12:44:28;3.40;;;0.85;;
51602;SDS011;37954;51.980;5.850;2023-04-24T12:48:51;0.70;;;0.60;;
51602;SDS011;37954;51.980;5.850;2023-04-24T12:53:03;1.60;;;0.90;;
51602;SDS011;37954;51.980;5.850;2023-04-24T12:57:15;1.35;;;0.90;;
51602;SDS011;37954;51.980;5.850;2023-04-24T13:01:27;4.45;;;1.05;;
51602;SDS011;37954;51.980;5.850;2023-04-24T13:05:39;1.27;;;0.70;;
51602;SDS011;37954;51.980;5.850;2023-04-24T13:09:52;1.00;;;0.80;;
51602;SDS011;37954;51.980;5.850;2023-04-24T13:14:05;5.78;;;1.23;;
51602;SDS011;37954;51.980;5.850;2023-04-24T13:18:17;2.40;;;1.20;;
51602;SDS011;37954;51.980;5.850;2023-04-24T13:22:29;2.22;;;0.75;;
51602;SDS011;37954;51.980;5.850;2023-04-24T13:26:41;5.75;;;1.10;;
51602;SDS011;37954;51.980;5.850;2023-04-24T13:30:52;4.47;;;1.33;;
51602;SDS011;37954;51.980;5.850;2023-04-24T13:35:04;2.72;;;1.35;;
51602;SDS011;37954;51.980;5.850;2023-04-24T13:39:16;14.60;;;1.48;;
51602;SDS011;37954;51.980;5.850;2023-04-24T13:43:33;1.92;;;1.15;;
51602;SDS011;37954;51.980;5.850;2023-04-24T13:47:45;6.00;;;1.80;;
51602;SDS011;37954;51.980;5.850;2023-04-24T13:51:57;2.75;;;1.30;;
51602;SDS011;37954;51.980;5.850;2023-04-24T13:56:09;2.25;;;0.88;;
51602;SDS011;37954;51.980;5.850;2023-04-24T14:00:21;2.10;;;1.17;;
51602;SDS011;37954;51.980;5.850;2023-04-24T14:04:32;2.10;;;1.08;;
51602;SDS011;37954;51.980;5.850;2023-04-24T14:08:45;1.88;;;1.13;;
51602;SDS011;37954;51.980;5.850;2023-04-24T14:12:57;2.55;;;1.52;;
51602;SDS011;37954;51.980;5.850;2023-04-24T14:17:09;3.63;;;1.30;;
51602;SDS011;37954;51.980;5.850;2023-04-24T14:21:20;2.50;;;1.65;;
51602;SDS011;37954;51.980;5.850;2023-04-24T14:25:32;7.15;;;2.15;;
51602;SDS011;37954;51.980;5.850;2023-04-24T14:29:44;5.15;;;1.80;;
51602;SDS011;37954;51.980;5.850;2023-04-24T14:33:56;3.28;;;1.60;;
51602;SDS011;37954;51.980;5.850;2023-04-24T14:38:08;4.38;;;1.67;;
51602;SDS011;37954;51.980;5.850;2023-04-24T14:42:20;9.18;;;2.10;;
51602;SDS011;37954;51.980;5.850;2023-04-24T14:46:53;4.93;;;1.77;;
51602;SDS011;37954;51.980;5.850;2023-04-24T14:51:16;4.93;;;2.10;;
51602;SDS011;37954;51.980;5.850;2023-04-24T14:55:28;4.88;;;1.85;;
51602;SDS011;37954;51.980;5.850;2023-04-24T14:59:40;3.10;;;1.58;;
51602;SDS011;37954;51.980;5.850;2023-04-24T15:03:52;2.63;;;1.48;;
51602;SDS011;37954;51.980;5.850;2023-04-24T15:08:04;6.95;;;1.90;;
51602;SDS011;37954;51.980;5.850;2023-04-24T15:12:16;7.00;;;1.80;;
51602;SDS011;37954;51.980;5.850;2023-04-24T15:16:31;8.40;;;1.95;;
51602;SDS011;37954;51.980;5.850;2023-04-24T15:20:43;3.60;;;1.77;;
51602;SDS011;37954;51.980;5.850;2023-04-24T15:24:55;5.82;;;1.65;;
51602;SDS011;37954;51.980;5.850;2023-04-24T15:29:07;4.85;;;2.38;;
51602;SDS011;37954;51.980;5.850;2023-04-24T15:33:19;5.63;;;2.05;;
51602;SDS011;37954;51.980;5.850;2023-04-24T15:37:31;6.40;;;1.77;;
51602;SDS011;37954;51.980;5.850;2023-04-24T15:41:42;5.40;;;1.85;;
51602;SDS011;37954;51.980;5.850;2023-04-24T15:45:54;6.13;;;2.13;;
51602;SDS011;37954;51.980;5.850;2023-04-24T15:50:13;8.50;;;2.20;;
51602;SDS011;37954;51.980;5.850;2023-04-24T15:54:26;5.28;;;1.95;;
51602;SDS011;37954;51.980;5.850;2023-04-24T15:58:38;4.50;;;2.00;;
51602;SDS011;37954;51.980;5.850;2023-04-24T16:02:50;3.78;;;2.13;;
51602;SDS011;37954;51.980;5.850;2023-04-24T16:07:03;5.10;;;1.95;;
51602;SDS011;37954;51.980;5.850;2023-04-24T16:11:15;4.68;;;2.17;;
51602;SDS011;37954;51.980;5.850;2023-04-24T16:15:27;4.25;;;2.03;;
51602;SDS011;37954;51.980;5.850;2023-04-24T16:19:39;6.60;;;2.25;;
51602;SDS011;37954;51.980;5.850;2023-04-24T16:23:53;3.97;;;2.03;;
51602;SDS011;37954;51.980;5.850;2023-04-24T16:28:05;6.25;;;2.60;;
51602;SDS011;37954;51.980;5.850;2023-04-24T16:32:17;5.13;;;2.35;;
51602;SDS011;37954;51.980;5.850;2023-04-24T16:36:29;8.43;;;3.17;;
51602;SDS011;37954;51.980;5.850;2023-04-24T16:40:41;4.40;;;2.20;;
51602;SDS011;37954;51.980;5.850;2023-04-24T16:44:53;8.40;;;2.60;;
51602;SDS011;37954;51.980;5.850;2023-04-24T16:49:05;10.00;;;3.40;;
51602;SDS011;37954;51.980;5.850;2023-04-24T16:53:17;10.02;;;5.28;;
51602;SDS011;37954;51.980;5.850;2023-04-24T16:57:29;4.10;;;2.65;;
51602;SDS011;37954;51.980;5.850;2023-04-24T17:01:40;5.55;;;2.10;;
51602;SDS011;37954;51.980;5.850;2023-04-24T17:05:57;7.70;;;2.65;;
51602;SDS011;37954;51.980;5.850;2023-04-24T17:10:09;4.28;;;2.00;;
51602;SDS011;37954;51.980;5.850;2023-04-24T17:14:21;4.72;;;2.33;;
51602;SDS011;37954;51.980;5.850;2023-04-24T17:23:08;4.60;;;2.22;;
51602;SDS011;37954;51.980;5.850;2023-04-24T17:27:22;4.78;;;2.63;;
51602;SDS011;37954;51.980;5.850;2023-04-24T17:31:35;4.07;;;2.58;;
51602;SDS011;37954;51.980;5.850;2023-04-24T17:35:47;11.15;;;2.70;;
51602;SDS011;37954;51.980;5.850;2023-04-24T17:40:00;4.65;;;2.08;;
51602;SDS011;37954;51.980;5.850;2023-04-24T17:44:12;3.92;;;2.00;;
51602;SDS011;37954;51.980;5.850;2023-04-24T17:48:24;11.57;;;2.70;;
51602;SDS011;37954;51.980;5.850;2023-04-24T17:52:39;5.23;;;2.43;;
51602;SDS011;37954;51.980;5.850;2023-04-24T17:56:51;6.57;;;2.15;;
51602;SDS011;37954;51.980;5.850;2023-04-24T18:01:03;10.43;;;2.30;;
51602;SDS011;37954;51.980;5.850;2023-04-24T18:05:15;6.60;;;2.50;;
51602;SDS011;37954;51.980;5.850;2023-04-24T18:09:29;5.93;;;2.20;;
51602;SDS011;37954;51.980;5.850;2023-04-24T18:13:44;6.07;;;3.05;;
51602;SDS011;37954;51.980;5.850;2023-04-24T18:17:57;7.80;;;2.70;;
51602;SDS011;37954;51.980;5.850;2023-04-24T18:22:08;10.75;;;2.60;;
51602;SDS011;37954;51.980;5.850;2023-04-24T18:26:20;8.10;;;2.80;;
51602;SDS011;37954;51.980;5.850;2023-04-24T18:30:32;7.77;;;2.80;;
51602;SDS011;37954;51.980;5.850;2023-04-24T18:34:45;4.93;;;2.93;;
51602;SDS011;37954;51.980;5.850;2023-04-24T18:38:56;6.40;;;2.97;;
51602;SDS011;37954;51.980;5.850;2023-04-24T18:43:09;5.03;;;2.43;;
51602;SDS011;37954;51.980;5.850;2023-04-24T18:47:21;8.07;;;3.63;;
51602;SDS011;37954;51.980;5.850;2023-04-24T18:51:33;14.00;;;4.23;;
51602;SDS011;37954;51.980;5.850;2023-04-24T18:56:03;7.67;;;4.03;;
51602;SDS011;37954;51.980;5.850;2023-04-24T19:00:14;8.20;;;4.47;;
51602;SDS011;37954;51.980;5.850;2023-04-24T19:04:27;17.93;;;4.80;;
51602;SDS011;37954;51.980;5.850;2023-04-24T19:08:40;9.47;;;3.23;;
51602;SDS011;37954;51.980;5.850;2023-04-24T19:12:53;6.77;;;3.47;;
51602;SDS011;37954;51.980;5.850;2023-04-24T19:17:07;6.83;;;2.60;;
51602;SDS011;37954;51.980;5.850;2023-04-24T19:21:20;4.00;;;2.13;;
51602;SDS011;37954;51.980;5.850;2023-04-24T19:25:33;13.47;;;3.10;;
51602;SDS011;37954;51.980;5.850;2023-04-24T19:29:45;9.77;;;3.33;;
51602;SDS011;37954;51.980;5.850;2023-04-24T19:33:57;10.23;;;3.50;;
51602;SDS011;37954;51.980;5.850;2023-04-24T19:38:08;8.90;;;2.70;;
51602;SDS011;37954;51.980;5.850;2023-04-24T19:42:21;8.43;;;2.70;;
51602;SDS011;37954;51.980;5.850;2023-04-24T19:46:46;4.27;;;2.67;;
51602;SDS011;37954;51.980;5.850;2023-04-24T19:50:58;6.40;;;2.53;;
51602;SDS011;37954;51.980;5.850;2023-04-24T19:55:11;6.87;;;2.60;;
51602;SDS011;37954;51.980;5.850;2023-04-24T19:59:24;7.67;;;3.27;;
51602;SDS011;37954;51.980;5.850;2023-04-24T20:03:46;10.23;;;3.30;;
51602;SDS011;37954;51.980;5.850;2023-04-24T20:08:09;5.23;;;2.70;;
51602;SDS011;37954;51.980;5.850;2023-04-24T20:12:38;7.43;;;3.10;;
51602;SDS011;37954;51.980;5.850;2023-04-24T20:17:48;8.17;;;2.83;;
51602;SDS011;37954;51.980;5.850;2023-04-24T20:22:02;8.37;;;2.73;;
51602;SDS011;37954;51.980;5.850;2023-04-24T20:26:14;7.10;;;2.27;;
51602;SDS011;37954;51.980;5.850;2023-04-24T20:30:36;10.50;;;2.83;;
51602;SDS011;37954;51.980;5.850;2023-04-24T20:35:53;7.50;;;2.37;;
51602;SDS011;37954;51.980;5.850;2023-04-24T20:40:08;8.33;;;2.63;;
51602;SDS011;37954;51.980;5.850;2023-04-24T20:44:20;9.93;;;2.63;;
51602;SDS011;37954;51.980;5.850;2023-04-24T20:48:41;9.20;;;2.47;;
51602;SDS011;37954;51.980;5.850;2023-04-24T20:52:53;4.47;;;2.13;;
51602;SDS011;37954;51.980;5.850;2023-04-24T20:57:04;5.23;;;2.43;;
51602;SDS011;37954;51.980;5.850;2023-04-24T21:01:16;4.13;;;1.70;;
51602;SDS011;37954;51.980;5.850;2023-04-24T21:05:28;4.33;;;1.90;;
51602;SDS011;37954;51.980;5.850;2023-04-24T21:09:40;7.37;;;2.10;;
51602;SDS011;37954;51.980;5.850;2023-04-24T21:13:52;5.40;;;1.93;;
51602;SDS011;37954;51.980;5.850;2023-04-24T21:18:03;3.93;;;1.70;;
51602;SDS011;37954;51.980;5.850;2023-04-24T21:22:15;3.40;;;1.37;;
51602;SDS011;37954;51.980;5.850;2023-04-24T21:26:27;3.43;;;1.87;;
51602;SDS011;37954;51.980;5.850;2023-04-24T21:30:39;3.90;;;1.50;;
51602;SDS011;37954;51.980;5.850;2023-04-24T21:34:51;2.67;;;1.40;;
51602;SDS011;37954;51.980;5.850;2023-04-24T21:39:02;2.57;;;1.50;;
51602;SDS011;37954;51.980;5.850;2023-04-24T21:43:14;3.27;;;1.33;;
51602;SDS011;37954;51.980;5.850;2023-04-24T21:47:27;4.80;;;1.90;;
51602;SDS011;37954;51.980;5.850;2023-04-24T21:51:39;2.20;;;1.40;;
51602;SDS011;37954;51.980;5.850;2023-04-24T21:55:50;1.73;;;1.30;;
51602;SDS011;37954;51.980;5.850;2023-04-24T22:00:03;4.27;;;1.23;;
51602;SDS011;37954;51.980;5.850;2023-04-24T22:04:17;2.17;;;1.37;;
51602;SDS011;37954;51.980;5.850;2023-04-24T22:08:33;1.33;;;1.20;;
51602;SDS011;37954;51.980;5.850;2023-04-24T22:12:44;5.43;;;1.50;;
51602;SDS011;37954;51.980;5.850;2023-04-24T22:16:56;2.17;;;1.40;;
51602;SDS011;37954;51.980;5.850;2023-04-24T22:21:09;4.60;;;1.70;;
51602;SDS011;37954;51.980;5.850;2023-04-24T22:25:21;2.53;;;1.27;;
51602;SDS011;37954;51.980;5.850;2023-04-24T22:29:32;3.70;;;1.60;;
51602;SDS011;37954;51.980;5.850;2023-04-24T22:33:44;3.60;;;1.57;;
51602;SDS011;37954;51.980;5.850;2023-04-24T22:37:59;3.03;;;1.10;;
51602;SDS011;37954;51.980;5.850;2023-04-24T22:42:11;2.07;;;1.17;;
51602;SDS011;37954;51.980;5.850;2023-04-24T22:46:23;7.17;;;1.40;;
51602;SDS011;37954;51.980;5.850;2023-04-24T22:50:36;5.00;;;1.30;;
51602;SDS011;37954;51.980;5.850;2023-04-24T22:54:47;1.40;;;1.30;;
51602;SDS011;37954;51.980;5.850;2023-04-24T22:58:59;4.00;;;1.67;;
51602;SDS011;37954;51.980;5.850;2023-04-24T23:03:11;3.77;;;1.70;;
51602;SDS011;37954;51.980;5.850;2023-04-24T23:07:23;2.67;;;1.50;;
51602;SDS011;37954;51.980;5.850;2023-04-24T23:11:34;3.23;;;1.80;;
51602;SDS011;37954;51.980;5.850;2023-04-24T23:15:47;3.10;;;1.83;;
51602;SDS011;37954;51.980;5.850;2023-04-24T23:19:59;2.93;;;1.63;;
51602;SDS011;37954;51.980;5.850;2023-04-24T23:24:11;4.60;;;1.63;;
51602;SDS011;37954;51.980;5.850;2023-04-24T23:28:22;8.20;;;2.20;;
51602;SDS011;37954;51.980;5.850;2023-04-24T23:32:34;8.40;;;2.43;;
51602;SDS011;37954;51.980;5.850;2023-04-24T23:36:46;6.37;;;1.70;;
51602;SDS011;37954;51.980;5.850;2023-04-24T23:40:59;7.23;;;2.50;;
51602;SDS011;37954;51.980;5.850;2023-04-24T23:45:11;7.70;;;2.77;;
51602;SDS011;37954;51.980;5.850;2023-04-24T23:49:23;9.40;;;2.23;;
51602;SDS011;37954;51.980;5.850;2023-04-24T23:53:34;6.57;;;2.30;;
51602;SDS011;37954;51.980;5.850;2023-04-24T23:57:46;4.70;;;2.03;;
